sensor_id;sensor_type;location;lat;lon;timestamp;pressure;altitude;pressure_sealevel;temperature;humidity
36260;BME280;22296;50.824;5.644;2023-04-10T00:00:27;101261.25;;;15.56;58.73
36260;BME280;22296;50.824;5.644;2023-04-10T00:02:57;101257.34;;;15.57;58.62
36260;BME280;22296;50.824;5.644;2023-04-10T00:05:24;101253.88;;;15.51;58.79
36260;BME280;22296;50.824;5.644;2023-04-10T00:07:51;101249.13;;;15.52;58.77
36260;BME280;22296;50.824;5.644;2023-04-10T00:10:18;101250.75;;;15.53;58.77
36260;BME280;22296;50.824;5.644;2023-04-10T00:12:45;101243.56;;;15.52;58.77
36260;BME280;22296;50.824;5.644;2023-04-10T00:15:11;101245.84;;;15.50;58.84
36260;BME280;22296;50.824;5.644;2023-04-10T00:17:38;101233.06;;;15.49;58.94
36260;BME280;22296;50.824;5.644;2023-04-10T00:20:05;101212.78;;;15.48;58.88
36260;BME280;22296;50.824;5.644;2023-04-10T00:22:32;101221.97;;;15.49;59.02
36260;BME280;22296;50.824;5.644;2023-04-10T00:24:58;101203.94;;;15.46;58.87
36260;BME280;22296;50.824;5.644;2023-04-10T00:27:25;101203.09;;;15.46;59.10
36260;BME280;22296;50.824;5.644;2023-04-10T00:29:51;101199.22;;;15.47;59.18
36260;BME280;22296;50.824;5.644;2023-04-10T00:32:18;101190.88;;;15.47;58.90
36260;BME280;22296;50.824;5.644;2023-04-10T00:34:45;101194.75;;;15.46;59.05
36260;BME280;22296;50.824;5.644;2023-04-10T00:37:11;101185.91;;;15.44;59.10
36260;BME280;22296;50.824;5.644;2023-04-10T00:39:38;101184.28;;;15.43;59.09
36260;BME280;22296;50.824;5.644;2023-04-10T00:42:04;101181.50;;;15.43;59.18
36260;BME280;22296;50.824;5.644;2023-04-10T00:44:34;101172.31;;;15.42;59.06
36260;BME280;22296;50.824;5.644;2023-04-10T00:47:03;101175.09;;;15.42;59.15
36260;BME280;22296;50.824;5.644;2023-04-10T00:49:30;101167.41;;;15.39;59.21
36260;BME280;22296;50.824;5.644;2023-04-10T00:51:56;101163.16;;;15.41;59.17
36260;BME280;22296;50.824;5.644;2023-04-10T00:54:24;101169.03;;;15.40;59.35
36260;BME280;22296;50.824;5.644;2023-04-10T00:56:51;101162.66;;;15.39;59.27
36260;BME280;22296;50.824;5.644;2023-04-10T00:59:19;101159.88;;;15.39;59.28
36260;BME280;22296;50.824;5.644;2023-04-10T01:01:46;101147.63;;;15.40;59.33
36260;BME280;22296;50.824;5.644;2023-04-10T01:04:13;101143.53;;;15.38;59.43
36260;BME280;22296;50.824;5.644;2023-04-10T01:17:26;101135.50;;;15.36;59.53
36260;BME280;22296;50.824;5.644;2023-04-10T01:22:45;101126.03;;;15.37;59.46
36260;BME280;22296;50.824;5.644;2023-04-10T01:30:23;101124.38;;;15.36;59.50
36260;BME280;22296;50.824;5.644;2023-04-10T01:32:50;101122.44;;;15.37;59.18
36260;BME280;22296;50.824;5.644;2023-04-10T01:35:18;101124.38;;;15.36;59.37
36260;BME280;22296;50.824;5.644;2023-04-10T01:37:45;101133.22;;;15.38;59.25
36260;BME280;22296;50.824;5.644;2023-04-10T01:40:13;101136.00;;;15.38;59.30
36260;BME280;22296;50.824;5.644;2023-04-10T01:42:43;101126.66;;;15.34;59.50
36260;BME280;22296;50.824;5.644;2023-04-10T01:45:12;101136.47;;;15.32;59.45
36260;BME280;22296;50.824;5.644;2023-04-10T01:47:43;101137.78;;;15.34;59.54
36260;BME280;22296;50.824;5.644;2023-04-10T01:50:10;101129.25;;;15.31;59.51
36260;BME280;22296;50.824;5.644;2023-04-10T01:52:37;101128.91;;;15.32;59.36
36260;BME280;22296;50.824;5.644;2023-04-10T01:55:15;101124.50;;;15.31;59.49
36260;BME280;22296;50.824;5.644;2023-04-10T01:57:46;101132.84;;;15.31;59.44
36260;BME280;22296;50.824;5.644;2023-04-10T02:00:16;101132.84;;;15.31;59.41
36260;BME280;22296;50.824;5.644;2023-04-10T02:02:43;101127.94;;;15.28;59.47
36260;BME280;22296;50.824;5.644;2023-04-10T02:05:10;101128.75;;;15.29;59.59
36260;BME280;22296;50.824;5.644;2023-04-10T02:10:06;101110.75;;;15.26;59.53
36260;BME280;22296;50.824;5.644;2023-04-10T02:12:43;101103.84;;;15.24;59.65
36260;BME280;22296;50.824;5.644;2023-04-10T02:15:11;101106.31;;;15.25;59.57
36260;BME280;22296;50.824;5.644;2023-04-10T02:17:38;101102.22;;;15.23;59.67
36260;BME280;22296;50.824;5.644;2023-04-10T02:20:06;101099.13;;;15.24;59.58
36260;BME280;22296;50.824;5.644;2023-04-10T02:22:34;101099.75;;;15.21;59.49
36260;BME280;22296;50.824;5.644;2023-04-10T02:25:03;101088.63;;;15.21;59.61
36260;BME280;22296;50.824;5.644;2023-04-10T02:27:34;101092.25;;;15.22;59.73
36260;BME280;22296;50.824;5.644;2023-04-10T02:30:01;101077.53;;;15.21;59.65
36260;BME280;22296;50.824;5.644;2023-04-10T02:32:30;101085.56;;;15.23;59.58
36260;BME280;22296;50.824;5.644;2023-04-10T02:34:58;101082.28;;;15.21;59.62
36260;BME280;22296;50.824;5.644;2023-04-10T02:37:25;101074.75;;;15.21;59.79
36260;BME280;22296;50.824;5.644;2023-04-10T02:39:52;101075.06;;;15.20;59.48
36260;BME280;22296;50.824;5.644;2023-04-10T02:42:22;101068.69;;;15.19;59.67
36260;BME280;22296;50.824;5.644;2023-04-10T02:44:50;101069.31;;;15.16;59.79
36260;BME280;22296;50.824;5.644;2023-04-10T02:47:17;101062.31;;;15.19;59.73
36260;BME280;22296;50.824;5.644;2023-04-10T02:49:45;101059.53;;;15.19;59.73
36260;BME280;22296;50.824;5.644;2023-04-10T02:52:14;101058.69;;;15.18;59.67
36260;BME280;22296;50.824;5.644;2023-04-10T02:54:42;101051.53;;;15.17;59.74
36260;BME280;22296;50.824;5.644;2023-04-10T02:57:09;101055.13;;;15.18;59.75
36260;BME280;22296;50.824;5.644;2023-04-10T02:59:36;101055.44;;;15.16;59.67
36260;BME280;22296;50.824;5.644;2023-04-10T03:02:04;101059.03;;;15.17;59.63
36260;BME280;22296;50.824;5.644;2023-04-10T03:04:34;101056.56;;;15.15;59.63
36260;BME280;22296;50.824;5.644;2023-04-10T03:07:01;101049.38;;;15.14;59.77
36260;BME280;22296;50.824;5.644;2023-04-10T03:09:28;101048.22;;;15.15;59.69
36260;BME280;22296;50.824;5.644;2023-04-10T03:11:55;101051.00;;;15.15;59.78
36260;BME280;22296;50.824;5.644;2023-04-10T03:14:21;101046.09;;;15.12;59.87
36260;BME280;22296;50.824;5.644;2023-04-10T03:16:48;101043.31;;;15.12;59.81
36260;BME280;22296;50.824;5.644;2023-04-10T03:19:16;101042.16;;;15.13;59.85
36260;BME280;22296;50.824;5.644;2023-04-10T03:21:43;101046.09;;;15.12;59.95
36260;BME280;22296;50.824;5.644;2023-04-10T03:24:10;101044.44;;;15.11;59.77
36260;BME280;22296;50.824;5.644;2023-04-10T03:26:37;101039.72;;;15.12;59.87
36260;BME280;22296;50.824;5.644;2023-04-10T03:29:03;101041.69;;;15.11;59.93
36260;BME280;22296;50.824;5.644;2023-04-10T03:31:32;101040.03;;;15.10;59.88
36260;BME280;22296;50.824;5.644;2023-04-10T03:34:00;101039.53;;;15.08;60.05
36260;BME280;22296;50.824;5.644;2023-04-10T03:36:26;101034.47;;;15.10;59.96
36260;BME280;22296;50.824;5.644;2023-04-10T03:38:53;101033.16;;;15.08;60.07
36260;BME280;22296;50.824;5.644;2023-04-10T03:41:20;101039.53;;;15.08;59.94
36260;BME280;22296;50.824;5.644;2023-04-10T03:43:50;101031.69;;;15.10;59.89
36260;BME280;22296;50.824;5.644;2023-04-10T03:46:16;101033.47;;;15.06;60.02
36260;BME280;22296;50.824;5.644;2023-04-10T03:48:43;101031.50;;;15.07;60.00
36260;BME280;22296;50.824;5.644;2023-04-10T03:51:10;101030.69;;;15.06;59.88
36260;BME280;22296;50.824;5.644;2023-04-10T03:53:36;101026.28;;;15.05;60.07
36260;BME280;22296;50.824;5.644;2023-04-10T03:56:08;101032.94;;;15.04;60.02
36260;BME280;22296;50.824;5.644;2023-04-10T03:58:35;101017.94;;;15.05;60.01
36260;BME280;22296;50.824;5.644;2023-04-10T04:01:03;101015.66;;;15.07;59.88
36260;BME280;22296;50.824;5.644;2023-04-10T04:03:37;101010.72;;;15.04;60.03
36260;BME280;22296;50.824;5.644;2023-04-10T04:06:23;101008.28;;;15.03;60.01
36260;BME280;22296;50.824;5.644;2023-04-10T04:09:13;101003.84;;;15.02;60.08
36260;BME280;22296;50.824;5.644;2023-04-10T04:12:00;100998.00;;;15.03;59.99
36260;BME280;22296;50.824;5.644;2023-04-10T04:14:52;101006.63;;;15.02;60.24
36260;BME280;22296;50.824;5.644;2023-04-10T04:17:25;101003.34;;;15.00;60.09
36260;BME280;22296;50.824;5.644;2023-04-10T04:20:04;101011.34;;;15.01;60.20
36260;BME280;22296;50.824;5.644;2023-04-10T04:23:09;101013.63;;;14.99;60.23
36260;BME280;22296;50.824;5.644;2023-04-10T04:25:46;101012.00;;;14.98;60.22
36260;BME280;22296;50.824;5.644;2023-04-10T04:28:33;101006.44;;;14.98;60.29
36260;BME280;22296;50.824;5.644;2023-04-10T04:31:32;100998.44;;;14.97;60.34
36260;BME280;22296;50.824;5.644;2023-04-10T04:34:15;100996.47;;;14.97;60.17
36260;BME280;22296;50.824;5.644;2023-04-10T04:37:10;100999.91;;;14.94;60.26
36260;BME280;22296;50.824;5.644;2023-04-10T04:39:50;100994.34;;;14.94;60.23
36260;BME280;22296;50.824;5.644;2023-04-10T04:42:42;100993.19;;;14.95;60.27
36260;BME280;22296;50.824;5.644;2023-04-10T04:45:56;100979.97;;;14.92;60.20
36260;BME280;22296;50.824;5.644;2023-04-10T04:48:55;100989.41;;;14.91;60.33
36260;BME280;22296;50.824;5.644;2023-04-10T04:51:51;100991.06;;;14.92;60.23
36260;BME280;22296;50.824;5.644;2023-04-10T04:54:44;100990.03;;;14.88;60.41
36260;BME280;22296;50.824;5.644;2023-04-10T04:57:22;100985.63;;;14.87;60.47
36260;BME280;22296;50.824;5.644;2023-04-10T05:00:04;100990.53;;;14.90;60.38
36260;BME280;22296;50.824;5.644;2023-04-10T05:02:50;100989.72;;;14.90;60.46
36260;BME280;22296;50.824;5.644;2023-04-10T05:05:46;100993.31;;;14.90;60.19
36260;BME280;22296;50.824;5.644;2023-04-10T05:08:30;100990.03;;;14.88;60.39
36260;BME280;22296;50.824;5.644;2023-04-10T05:11:08;100983.66;;;14.88;60.44
36260;BME280;22296;50.824;5.644;2023-04-10T05:13:51;100983.16;;;14.86;60.47
36260;BME280;22296;50.824;5.644;2023-04-10T05:16:39;100974.00;;;14.85;60.39
36260;BME280;22296;50.824;5.644;2023-04-10T05:19:52;100968.47;;;14.85;60.43
36260;BME280;22296;50.824;5.644;2023-04-10T05:22:36;100964.03;;;14.84;60.45
36260;BME280;22296;50.824;5.644;2023-04-10T05:25:32;100968.47;;;14.85;60.46
36260;BME280;22296;50.824;5.644;2023-04-10T05:28:08;100966.81;;;14.84;60.39
36260;BME280;22296;50.824;5.644;2023-04-10T05:30:59;100957.34;;;14.85;60.25
36260;BME280;22296;50.824;5.644;2023-04-10T05:33:46;100961.78;;;14.86;60.17
36260;BME280;22296;50.824;5.644;2023-04-10T05:36:24;100954.91;;;14.83;60.27
36260;BME280;22296;50.824;5.644;2023-04-10T05:39:17;100961.25;;;14.84;60.40
36260;BME280;22296;50.824;5.644;2023-04-10T05:42:08;100954.09;;;14.83;60.32
36260;BME280;22296;50.824;5.644;2023-04-10T05:44:44;100953.25;;;14.82;60.52
36260;BME280;22296;50.824;5.644;2023-04-10T05:47:34;100946.88;;;14.82;60.28
36260;BME280;22296;50.824;5.644;2023-04-10T05:50:18;100943.28;;;14.81;60.40
36260;BME280;22296;50.824;5.644;2023-04-10T05:53:12;100953.56;;;14.81;60.26
36260;BME280;22296;50.824;5.644;2023-04-10T05:55:59;100957.78;;;14.78;60.32
36260;BME280;22296;50.824;5.644;2023-04-10T05:58:44;100965.81;;;14.80;60.14
36260;BME280;22296;50.824;5.644;2023-04-10T06:01:13;100969.72;;;14.79;60.10
36260;BME280;22296;50.824;5.644;2023-04-10T06:03:49;100964.16;;;14.79;60.09
36260;BME280;22296;50.824;5.644;2023-04-10T06:06:16;100968.06;;;14.78;60.05
36260;BME280;22296;50.824;5.644;2023-04-10T06:08:43;100956.97;;;14.78;60.11
36260;BME280;22296;50.824;5.644;2023-04-10T06:11:10;100970.84;;;14.78;59.99
36260;BME280;22296;50.824;5.644;2023-04-10T06:13:39;100959.25;;;14.76;60.02
36260;BME280;22296;50.824;5.644;2023-04-10T06:16:06;100966.75;;;14.75;60.06
36260;BME280;22296;50.824;5.644;2023-04-10T06:18:33;100959.25;;;14.76;59.98
36260;BME280;22296;50.824;5.644;2023-04-10T06:21:00;100966.44;;;14.77;59.90
36260;BME280;22296;50.824;5.644;2023-04-10T06:23:27;100968.72;;;14.75;59.80
36260;BME280;22296;50.824;5.644;2023-04-10T06:25:55;100970.34;;;14.76;59.77
36260;BME280;22296;50.824;5.644;2023-04-10T06:28:22;100963.19;;;14.75;59.80
36260;BME280;22296;50.824;5.644;2023-04-10T06:30:53;100963.19;;;14.75;59.76
36260;BME280;22296;50.824;5.644;2023-04-10T06:33:28;100958.41;;;14.75;59.93
36260;BME280;22296;50.824;5.644;2023-04-10T06:35:55;100962.53;;;14.78;59.58
36260;BME280;22296;50.824;5.644;2023-04-10T06:38:22;100964.84;;;14.84;59.45
36260;BME280;22296;50.824;5.644;2023-04-10T06:40:49;100964.63;;;14.95;59.14
36260;BME280;22296;50.824;5.644;2023-04-10T06:43:16;100964.28;;;14.96;59.07
36260;BME280;22296;50.824;5.644;2023-04-10T06:45:42;100965.31;;;15.00;58.99
36260;BME280;22296;50.824;5.644;2023-04-10T06:48:09;100961.25;;;15.06;58.88
36260;BME280;22296;50.824;5.644;2023-04-10T06:50:36;100955.56;;;15.11;58.75
36260;BME280;22296;50.824;5.644;2023-04-10T06:53:02;100949.72;;;15.21;58.48
36260;BME280;22296;50.824;5.644;2023-04-10T06:55:29;100952.22;;;15.31;58.30
36260;BME280;22296;50.824;5.644;2023-04-10T06:57:56;100944.59;;;15.46;58.00
36260;BME280;22296;50.824;5.644;2023-04-10T07:00:23;100946.47;;;15.59;57.75
36260;BME280;22296;50.824;5.644;2023-04-10T07:02:50;100941.13;;;15.71;57.40
36260;BME280;22296;50.824;5.644;2023-04-10T07:05:17;100941.00;;;15.84;57.06
36260;BME280;22296;50.824;5.644;2023-04-10T07:07:43;100940.88;;;15.98;56.77
36260;BME280;22296;50.824;5.644;2023-04-10T07:10:10;100939.56;;;16.04;56.66
36260;BME280;22296;50.824;5.644;2023-04-10T07:12:38;100942.03;;;16.14;56.29
36260;BME280;22296;50.824;5.644;2023-04-10T07:15:05;100934.34;;;16.20;56.18
36260;BME280;22296;50.824;5.644;2023-04-10T07:17:32;100930.91;;;16.31;56.02
36260;BME280;22296;50.824;5.644;2023-04-10T07:19:58;100924.69;;;16.34;55.91
36260;BME280;22296;50.824;5.644;2023-04-10T07:22:25;100924.69;;;16.43;55.85
36260;BME280;22296;50.824;5.644;2023-04-10T07:24:53;100924.84;;;16.46;55.61
36260;BME280;22296;50.824;5.644;2023-04-10T07:27:19;100927.31;;;16.48;55.80
36260;BME280;22296;50.824;5.644;2023-04-10T07:29:46;100926.66;;;16.51;55.74
36260;BME280;22296;50.824;5.644;2023-04-10T07:32:13;100918.97;;;16.57;55.52
36260;BME280;22296;50.824;5.644;2023-04-10T07:34:40;100925.06;;;16.59;55.52
36260;BME280;22296;50.824;5.644;2023-04-10T07:37:07;100917.00;;;16.66;55.50
36260;BME280;22296;50.824;5.644;2023-04-10T07:39:34;100911.44;;;16.66;55.45
36260;BME280;22296;50.824;5.644;2023-04-10T07:42:00;100908.16;;;16.72;55.49
36260;BME280;22296;50.824;5.644;2023-04-10T07:44:27;100901.94;;;16.75;55.36
36260;BME280;22296;50.824;5.644;2023-04-10T07:46:54;100897.50;;;16.74;55.29
36260;BME280;22296;50.824;5.644;2023-04-10T07:49:21;100894.22;;;16.72;55.45
36260;BME280;22296;50.824;5.644;2023-04-10T07:51:48;100902.75;;;16.76;55.28
36260;BME280;22296;50.824;5.644;2023-04-10T07:54:15;100902.75;;;16.76;55.31
36260;BME280;22296;50.824;5.644;2023-04-10T07:56:41;100888.16;;;16.79;55.35
36260;BME280;22296;50.824;5.644;2023-04-10T07:59:08;100888.16;;;16.79;55.35
36260;BME280;22296;50.824;5.644;2023-04-10T08:01:34;100884.22;;;16.80;55.20
36260;BME280;22296;50.824;5.644;2023-04-10T08:04:01;100876.34;;;16.82;55.26
36260;BME280;22296;50.824;5.644;2023-04-10T08:06:31;100866.84;;;16.83;55.41
36260;BME280;22296;50.824;5.644;2023-04-10T08:08:58;100865.03;;;16.87;55.13
36260;BME280;22296;50.824;5.644;2023-04-10T08:11:25;100858.78;;;16.90;55.11
36260;BME280;22296;50.824;5.644;2023-04-10T08:13:54;100857.63;;;16.91;54.95
36260;BME280;22296;50.824;5.644;2023-04-10T08:16:24;100853.03;;;16.95;55.06
36260;BME280;22296;50.824;5.644;2023-04-10T08:18:52;100861.53;;;17.07;56.66
36260;BME280;22296;50.824;5.644;2023-04-10T08:21:20;100854.75;;;17.17;56.47
36260;BME280;22296;50.824;5.644;2023-04-10T08:23:48;100847.81;;;17.23;56.18
36260;BME280;22296;50.824;5.644;2023-04-10T08:26:15;100847.94;;;17.35;55.79
36260;BME280;22296;50.824;5.644;2023-04-10T08:28:42;100840.19;;;17.40;55.73
36260;BME280;22296;50.824;5.644;2023-04-10T08:31:12;100843.28;;;17.47;55.08
36260;BME280;22296;50.824;5.644;2023-04-10T08:33:39;100842.25;;;17.60;54.98
36260;BME280;22296;50.824;5.644;2023-04-10T08:36:10;100849.47;;;17.61;55.93
36260;BME280;22296;50.824;5.644;2023-04-10T08:38:38;100852.50;;;17.69;55.79
36260;BME280;22296;50.824;5.644;2023-04-10T08:41:05;100853.53;;;17.64;56.11
36260;BME280;22296;50.824;5.644;2023-04-10T08:43:32;100848.50;;;17.57;55.53
36260;BME280;22296;50.824;5.644;2023-04-10T08:46:00;100854.06;;;17.57;56.05
36260;BME280;22296;50.824;5.644;2023-04-10T08:48:30;100856.81;;;17.66;56.00
36260;BME280;22296;50.824;5.644;2023-04-10T08:50:57;100855.84;;;17.53;55.31
36260;BME280;22296;50.824;5.644;2023-04-10T08:53:26;100859.81;;;17.52;54.87
36260;BME280;22296;50.824;5.644;2023-04-10T08:55:54;100853.47;;;17.43;54.92
36260;BME280;22296;50.824;5.644;2023-04-10T08:58:21;100855.13;;;17.44;54.99
36260;BME280;22296;50.824;5.644;2023-04-10T09:00:49;100846.75;;;17.44;54.76
36260;BME280;22296;50.824;5.644;2023-04-10T09:03:16;100847.22;;;17.46;54.54
36260;BME280;22296;50.824;5.644;2023-04-10T09:05:43;100852.78;;;17.46;54.51
36260;BME280;22296;50.824;5.644;2023-04-10T09:08:10;100839.16;;;17.45;54.79
36260;BME280;22296;50.824;5.644;2023-04-10T09:10:37;100846.41;;;17.46;54.45
36260;BME280;22296;50.824;5.644;2023-04-10T09:13:04;100840.19;;;17.40;54.76
36260;BME280;22296;50.824;5.644;2023-04-10T09:15:53;100842.75;;;17.54;54.22
36260;BME280;22296;50.824;5.644;2023-04-10T09:18:18;100832.13;;;17.47;54.28
36260;BME280;22296;50.824;5.644;2023-04-10T09:20:44;100829.34;;;17.47;54.49
36260;BME280;22296;50.824;5.644;2023-04-10T09:23:19;100829.47;;;17.51;54.27
36260;BME280;22296;50.824;5.644;2023-04-10T09:25:47;100827.84;;;17.50;54.41
36260;BME280;22296;50.824;5.644;2023-04-10T09:28:16;100828.50;;;17.55;54.30
36260;BME280;22296;50.824;5.644;2023-04-10T09:30:43;100821.59;;;17.53;54.41
36260;BME280;22296;50.824;5.644;2023-04-10T09:33:22;100832.44;;;17.54;54.24
36260;BME280;22296;50.824;5.644;2023-04-10T09:35:49;100829.44;;;17.59;53.92
36260;BME280;22296;50.824;5.644;2023-04-10T09:38:17;100822.25;;;17.58;54.29
36260;BME280;22296;50.824;5.644;2023-04-10T09:40:44;100817.59;;;17.62;54.03
36260;BME280;22296;50.824;5.644;2023-04-10T09:43:29;100814.34;;;17.60;54.15
36260;BME280;22296;50.824;5.644;2023-04-10T09:45:55;100806.81;;;17.61;53.78
36260;BME280;22296;50.824;5.644;2023-04-10T09:48:23;100795.13;;;17.68;53.90
36260;BME280;22296;50.824;5.644;2023-04-10T09:50:50;100791.97;;;17.69;53.59
36260;BME280;22296;50.824;5.644;2023-04-10T09:53:18;100779.25;;;17.59;53.97
36260;BME280;22296;50.824;5.644;2023-04-10T09:55:48;100773.66;;;17.59;53.97
36260;BME280;22296;50.824;5.644;2023-04-10T09:58:15;100760.84;;;17.67;53.93
36260;BME280;22296;50.824;5.644;2023-04-10T10:00:46;100762.13;;;17.70;53.53
36260;BME280;22296;50.824;5.644;2023-04-10T10:03:17;100760.75;;;17.76;53.65
36260;BME280;22296;50.824;5.644;2023-04-10T10:05:47;100753.53;;;17.75;53.46
36260;BME280;22296;50.824;5.644;2023-04-10T10:08:15;100746.31;;;17.74;53.69
36260;BME280;22296;50.824;5.644;2023-04-10T10:10:46;100737.47;;;17.72;53.51
36260;BME280;22296;50.824;5.644;2023-04-10T10:13:48;100742.59;;;17.70;53.69
36260;BME280;22296;50.824;5.644;2023-04-10T10:16:08;100748.63;;;17.72;53.92
36260;BME280;22296;50.824;5.644;2023-04-10T10:21:22;100749.81;;;17.71;53.57
36260;BME280;22296;50.824;5.644;2023-04-10T10:23:49;100748.63;;;17.72;53.74
36260;BME280;22296;50.824;5.644;2023-04-10T10:26:20;100732.88;;;17.76;53.69
36260;BME280;22296;50.824;5.644;2023-04-10T10:28:49;100739.38;;;17.80;54.06
36260;BME280;22296;50.824;5.644;2023-04-10T10:31:18;100731.81;;;17.80;53.79
36260;BME280;22296;50.824;5.644;2023-04-10T10:33:46;100730.81;;;17.85;53.82
36260;BME280;22296;50.824;5.644;2023-04-10T10:36:13;100719.53;;;17.81;54.13
36260;BME280;22296;50.824;5.644;2023-04-10T10:38:44;100719.97;;;17.83;53.96
36260;BME280;22296;50.824;5.644;2023-04-10T10:43:54;100708.28;;;17.90;54.15
36260;BME280;22296;50.824;5.644;2023-04-10T10:46:34;100704.81;;;17.93;53.87
36260;BME280;22296;50.824;5.644;2023-04-10T10:49:03;100705.63;;;17.93;53.96
36260;BME280;22296;50.824;5.644;2023-04-10T10:51:43;100696.34;;;18.01;53.45
36260;BME280;22296;50.824;5.644;2023-04-10T10:54:29;100693.06;;;17.99;53.37
36260;BME280;22296;50.824;5.644;2023-04-10T10:56:56;100692.50;;;18.06;53.23
36260;BME280;22296;50.824;5.644;2023-04-10T11:02:14;100677.28;;;18.03;53.61
36260;BME280;22296;50.824;5.644;2023-04-10T11:04:45;100682.16;;;18.06;53.23
36260;BME280;22296;50.824;5.644;2023-04-10T11:07:12;100669.50;;;18.09;53.27
36260;BME280;22296;50.824;5.644;2023-04-10T11:09:50;100669.75;;;18.16;52.84
36260;BME280;22296;50.824;5.644;2023-04-10T11:12:18;100662.53;;;18.15;53.00
36260;BME280;22296;50.824;5.644;2023-04-10T11:14:55;100655.31;;;18.14;53.25
36260;BME280;22296;50.824;5.644;2023-04-10T11:20:07;100642.75;;;18.20;52.64
36260;BME280;22296;50.824;5.644;2023-04-10T11:22:39;100649.53;;;18.19;52.98
36260;BME280;22296;50.824;5.644;2023-04-10T11:25:20;100647.41;;;18.28;52.46
36260;BME280;22296;50.824;5.644;2023-04-10T11:27:47;100653.94;;;18.20;53.08
36260;BME280;22296;50.824;5.644;2023-04-10T11:30:24;100644.63;;;18.28;52.85
36260;BME280;22296;50.824;5.644;2023-04-10T11:32:51;100637.44;;;18.27;52.55
36260;BME280;22296;50.824;5.644;2023-04-10T11:35:20;100633.94;;;18.18;52.77
36260;BME280;22296;50.824;5.644;2023-04-10T11:37:47;100636.03;;;18.21;52.98
36260;BME280;22296;50.824;5.644;2023-04-10T11:40:14;100618.34;;;18.29;52.61
36260;BME280;22296;50.824;5.644;2023-04-10T11:42:42;100625.31;;;18.23;52.83
36260;BME280;22296;50.824;5.644;2023-04-10T11:45:21;100633.47;;;18.28;52.76
36260;BME280;22296;50.824;5.644;2023-04-10T11:47:51;100624.38;;;18.31;52.55
36260;BME280;22296;50.824;5.644;2023-04-10T11:50:19;100628.72;;;18.41;52.32
36260;BME280;22296;50.824;5.644;2023-04-10T11:52:49;100630.69;;;18.40;52.67
36260;BME280;22296;50.824;5.644;2023-04-10T11:55:16;100613.84;;;18.49;52.19
36260;BME280;22296;50.824;5.644;2023-04-10T11:57:43;100612.78;;;18.41;52.35
36260;BME280;22296;50.824;5.644;2023-04-10T12:00:10;100601.84;;;18.36;52.46
36260;BME280;22296;50.824;5.644;2023-04-10T12:02:50;100607.19;;;18.41;52.75
36260;BME280;22296;50.824;5.644;2023-04-10T12:05:18;100600.47;;;18.42;52.45
36260;BME280;22296;50.824;5.644;2023-04-10T12:07:48;100598.13;;;18.44;52.36
36260;BME280;22296;50.824;5.644;2023-04-10T12:10:15;100607.22;;;18.53;52.06
36260;BME280;22296;50.824;5.644;2023-04-10T12:12:42;100598.56;;;18.46;52.30
36260;BME280;22296;50.824;5.644;2023-04-10T12:15:27;100597.91;;;18.49;52.37
36260;BME280;22296;50.824;5.644;2023-04-10T12:17:54;100601.16;;;18.51;52.22
36260;BME280;22296;50.824;5.644;2023-04-10T12:20:21;100592.91;;;18.55;52.34
36260;BME280;22296;50.824;5.644;2023-04-10T12:22:53;100588.25;;;18.59;52.21
36260;BME280;22296;50.824;5.644;2023-04-10T12:25:21;100580.22;;;18.57;52.48
36260;BME280;22296;50.824;5.644;2023-04-10T12:27:48;100576.97;;;18.55;52.17
36260;BME280;22296;50.824;5.644;2023-04-10T12:30:16;100576.72;;;18.60;52.39
36260;BME280;22296;50.824;5.644;2023-04-10T12:32:49;100570.69;;;18.58;52.17
36260;BME280;22296;50.824;5.644;2023-04-10T12:35:16;100557.03;;;18.57;52.48
36260;BME280;22296;50.824;5.644;2023-04-10T12:37:50;100547.50;;;18.58;52.38
36260;BME280;22296;50.824;5.644;2023-04-10T12:40:17;100554.72;;;18.59;52.33
36260;BME280;22296;50.824;5.644;2023-04-10T12:42:46;100539.31;;;18.77;51.82
36260;BME280;22296;50.824;5.644;2023-04-10T12:45:12;100533.66;;;18.73;52.18
36260;BME280;22296;50.824;5.644;2023-04-10T12:47:43;100541.53;;;18.71;52.00
36260;BME280;22296;50.824;5.644;2023-04-10T12:50:14;100545.97;;;18.72;52.24
36260;BME280;22296;50.824;5.644;2023-04-10T12:52:42;100524.91;;;18.75;52.16
36260;BME280;22296;50.824;5.644;2023-04-10T12:57:39;100535.25;;;18.74;52.22
36260;BME280;22296;50.824;5.644;2023-04-10T13:00:07;100535.81;;;18.80;52.14
36260;BME280;22296;50.824;5.644;2023-04-10T13:02:35;100534.53;;;18.77;52.24
36260;BME280;22296;50.824;5.644;2023-04-10T13:05:03;100530.59;;;18.78;52.13
36260;BME280;22296;50.824;5.644;2023-04-10T13:07:30;100526.66;;;18.80;51.95
36260;BME280;22296;50.824;5.644;2023-04-10T13:09:57;100532.44;;;18.87;51.73
36260;BME280;22296;50.824;5.644;2023-04-10T13:12:24;100523.59;;;18.85;52.02
36260;BME280;22296;50.824;5.644;2023-04-10T13:14:52;100525.19;;;18.86;51.96
36260;BME280;22296;50.824;5.644;2023-04-10T13:17:22;100508.53;;;18.89;51.98
36260;BME280;22296;50.824;5.644;2023-04-10T13:19:50;100505.41;;;18.91;51.88
36260;BME280;22296;50.824;5.644;2023-04-10T13:22:17;100495.66;;;18.85;52.09
36260;BME280;22296;50.824;5.644;2023-04-10T13:24:43;100500.72;;;18.95;51.81
36260;BME280;22296;50.824;5.644;2023-04-10T13:27:10;100494.94;;;19.15;51.83
36260;BME280;22296;50.824;5.644;2023-04-10T13:29:41;100490.97;;;19.16;51.53
36260;BME280;22296;50.824;5.644;2023-04-10T13:32:07;100485.00;;;19.18;51.69
36260;BME280;22296;50.824;5.644;2023-04-10T13:34:34;100476.19;;;19.16;51.99
36260;BME280;22296;50.824;5.644;2023-04-10T13:37:01;100462.38;;;19.23;51.57
36260;BME280;22296;50.824;5.644;2023-04-10T13:39:29;100462.47;;;19.26;51.40
36260;BME280;22296;50.824;5.644;2023-04-10T13:41:58;100465.56;;;19.21;51.93
36260;BME280;22296;50.824;5.644;2023-04-10T13:44:27;100458.97;;;19.14;52.00